Time;durP1;ratioP1;P1;durP2;ratioP2;P2;SDS_P1;SDS_P2;PMS_P1;PMS_P2;Temp;Humidity;BMP_temperature;BMP_pressure;BME280_temperature;BME280_humidity;BME280_pressure;Samples;Min_cycle;Max_cycle;Signal;HPM_P1;HPM_P2
2021/08/10 05:49:55;;;;;;;11.13;8.03;;;14.60;98.30;;;;;;5217047;22;20478;-81
2021/08/10 05:53:07;;;;;;;11.27;7.90;;;14.70;98.30;;;;;;5146842;23;21021;-82
2021/08/10 05:55:12;;;;;;;11.23;8.13;;;14.70;98.30;;;;;;5170316;22;20951;-81
2021/08/10 05:57:19;;;;;;;12.83;8.10;;;14.80;98.30;;;;;;5216941;22;20521;-80
2021/08/10 05:59:30;;;;;;;9.47;8.47;;;14.80;98.30;;;;;;5225930;22;20446;-81
2021/08/10 06:01:36;;;;;;;9.37;8.10;;;14.80;98.30;;;;;;5225597;22;20818;-81
2021/08/10 06:03:40;;;;;;;9.20;7.70;;;14.90;98.30;;;;;;5225983;22;20519;-81
2021/08/10 06:05:45;;;;;;;15.50;8.93;;;14.90;98.30;;;;;;5226275;22;20448;-81
2021/08/10 06:07:51;;;;;;;11.10;8.50;;;14.90;98.30;;;;;;5225019;22;20886;-81
2021/08/10 06:09:56;;;;;;;10.17;7.80;;;14.90;98.30;;;;;;5225750;22;20426;-81
2021/08/10 06:12:01;;;;;;;15.63;8.90;;;14.90;98.30;;;;;;5198690;22;20423;-81
2021/08/10 06:14:05;;;;;;;10.67;8.70;;;14.90;98.30;;;;;;5225985;22;20445;-81
2021/08/10 06:16:08;;;;;;;12.30;7.73;;;14.90;98.30;;;;;;5225975;22;20430;-80
2021/08/10 06:18:11;;;;;;;17.70;7.80;;;14.90;98.30;;;;;;5225544;22;20469;-81
2021/08/10 06:20:15;;;;;;;13.40;8.37;;;15.00;98.30;;;;;;5226037;22;20414;-81
2021/08/10 06:22:20;;;;;;;8.60;7.53;;;15.00;98.30;;;;;;5225884;22;20496;-80
2021/08/10 06:24:27;;;;;;;9.97;8.00;;;15.00;98.30;;;;;;5225234;22;20438;-81
2021/08/10 06:26:31;;;;;;;10.83;9.30;;;15.00;98.30;;;;;;5224696;22;20420;-80
2021/08/10 06:28:37;;;;;;;10.90;8.37;;;15.00;98.30;;;;;;5216251;22;20448;-81
2021/08/10 06:30:40;;;;;;;11.47;8.67;;;15.00;98.30;;;;;;5225791;22;20968;-81
2021/08/10 06:32:47;;;;;;;9.43;8.33;;;14.90;98.30;;;;;;5224971;22;20817;-80
2021/08/10 06:34:54;;;;;;;12.30;8.60;;;15.00;98.30;;;;;;5225365;22;20420;-81
2021/08/10 06:37:00;;;;;;;13.13;8.70;;;15.00;98.30;;;;;;5225512;22;20406;-81
2021/08/10 06:39:06;;;;;;;11.03;8.70;;;15.00;98.30;;;;;;5225562;22;20514;-81
2021/08/10 06:41:10;;;;;;;11.37;8.90;;;15.00;98.30;;;;;;5225381;22;20421;-81
2021/08/10 06:43:14;;;;;;;9.63;8.63;;;15.10;98.30;;;;;;5225896;22;20418;-81
2021/08/10 06:45:24;;;;;;;10.43;8.40;;;15.20;98.30;;;;;;5225089;22;20438;-81
2021/08/10 06:47:31;;;;;;;9.17;8.13;;;15.20;98.30;;;;;;5224821;22;20754;-81
2021/08/10 06:49:39;;;;;;;10.43;8.43;;;15.30;98.30;;;;;;5198289;22;20461;-81
2021/08/10 06:51:42;;;;;;;11.47;8.23;;;15.30;98.30;;;;;;5224813;22;20987;-81
2021/08/10 06:53:46;;;;;;;13.33;8.23;;;15.30;98.30;;;;;;5225103;22;20509;-81
2021/08/10 06:55:51;;;;;;;11.07;8.63;;;15.30;98.30;;;;;;5198313;22;20478;-80
2021/08/10 06:57:56;;;;;;;11.10;8.77;;;15.30;98.30;;;;;;5225299;22;20487;-81
2021/08/10 07:00:00;;;;;;;17.47;9.20;;;15.30;98.30;;;;;;5225003;22;20975;-81
2021/08/10 07:02:05;;;;;;;10.60;8.47;;;15.40;98.30;;;;;;5225159;22;20968;-82
2021/08/10 07:04:09;;;;;;;11.17;8.57;;;15.50;98.30;;;;;;5224700;22;21023;-81
2021/08/10 07:06:14;;;;;;;11.40;7.90;;;15.50;98.30;;;;;;5224150;22;20441;-81
2021/08/10 07:08:17;;;;;;;10.87;8.27;;;15.50;98.30;;;;;;5216460;22;20480;-80
2021/08/10 07:10:20;;;;;;;11.37;9.00;;;15.50;98.30;;;;;;5216649;22;20492;-80
2021/08/10 07:12:24;;;;;;;11.33;7.83;;;15.60;98.30;;;;;;5225536;22;20516;-81
2021/08/10 07:14:27;;;;;;;15.90;9.13;;;15.60;98.30;;;;;;5216898;22;20973;-80
2021/08/10 07:16:34;;;;;;;15.30;8.30;;;15.60;98.30;;;;;;5216417;22;20473;-81
2021/08/10 07:18:37;;;;;;;9.63;7.93;;;15.70;98.30;;;;;;5216378;22;20448;-81
2021/08/10 07:20:40;;;;;;;11.50;9.10;;;15.80;98.30;;;;;;5225239;22;20429;-81
2021/08/10 07:22:43;;;;;;;10.40;8.53;;;15.80;98.30;;;;;;5225021;22;20410;-81
2021/08/10 07:24:46;;;;;;;11.97;8.30;;;15.90;98.30;;;;;;5216204;22;20422;-81
2021/08/10 07:26:49;;;;;;;10.67;7.47;;;16.00;98.30;;;;;;5216170;22;20429;-81
2021/08/10 07:28:57;;;;;;;10.27;7.83;;;16.00;98.30;;;;;;5225175;22;20468;-81
2021/08/10 07:31:00;;;;;;;10.07;8.40;;;16.00;98.30;;;;;;5217057;22;20432;-82
2021/08/10 07:33:03;;;;;;;11.17;8.20;;;16.00;98.30;;;;;;5216647;22;20421;-81
2021/08/10 07:35:08;;;;;;;13.10;8.87;;;16.10;98.30;;;;;;5216512;22;20928;-81
2021/08/10 07:37:11;;;;;;;10.63;8.10;;;16.00;98.30;;;;;;5216383;22;20429;-81
2021/08/10 07:39:14;;;;;;;9.57;7.93;;;16.10;98.30;;;;;;5216448;22;20528;-82
2021/08/10 07:41:17;;;;;;;12.30;8.70;;;16.20;98.30;;;;;;5216583;22;20422;-81
2021/08/10 07:43:20;;;;;;;10.83;7.80;;;16.30;98.30;;;;;;5216666;22;20432;-80
2021/08/10 07:45:24;;;;;;;9.40;8.23;;;16.30;98.30;;;;;;5225051;22;20441;-81
2021/08/10 07:47:27;;;;;;;10.03;7.83;;;16.20;98.30;;;;;;5216098;22;20473;-82
2021/08/10 07:49:30;;;;;;;13.57;8.17;;;16.10;98.30;;;;;;5225053;22;20453;-81
2021/08/10 07:51:33;;;;;;;13.00;8.20;;;16.20;98.30;;;;;;5225133;22;20429;-81
2021/08/10 07:53:36;;;;;;;10.77;8.10;;;16.30;98.30;;;;;;5225077;22;20494;-82
2021/08/10 07:55:39;;;;;;;13.70;9.37;;;16.30;98.30;;;;;;5225136;22;20418;-81
2021/08/10 07:57:42;;;;;;;11.30;8.57;;;16.30;98.30;;;;;;5216223;22;20428;-81
2021/08/10 07:59:45;;;;;;;11.63;8.80;;;16.30;98.30;;;;;;5225125;22;20938;-81
2021/08/10 08:01:50;;;;;;;12.00;8.50;;;16.30;98.30;;;;;;5216375;22;20429;-81
2021/08/10 08:03:53;;;;;;;8.50;7.50;;;16.30;98.30;;;;;;5216578;22;20436;-82
2021/08/10 08:05:56;;;;;;;10.30;8.17;;;16.30;98.30;;;;;;5216456;22;20446;-81
2021/08/10 08:07:59;;;;;;;9.40;8.40;;;16.40;98.30;;;;;;5224929;22;20421;-81
2021/08/10 08:10:02;;;;;;;10.73;7.97;;;16.40;98.30;;;;;;5216626;22;20520;-81
2021/08/10 08:12:06;;;;;;;10.93;7.90;;;16.50;98.30;;;;;;5216316;22;20505;-81
2021/08/10 08:14:09;;;;;;;11.23;7.57;;;16.60;98.30;;;;;;5216288;22;20781;-81
2021/08/10 08:16:13;;;;;;;10.10;7.00;;;16.70;98.30;;;;;;5216597;22;20489;-81
2021/08/10 08:18:18;;;;;;;9.47;7.60;;;16.80;98.30;;;;;;5216306;22;20809;-81
2021/08/10 08:20:21;;;;;;;9.10;6.93;;;17.00;98.30;;;;;;5216546;22;20410;-81
2021/08/10 08:22:24;;;;;;;11.33;7.40;;;17.10;98.30;;;;;;5216385;22;20425;-82
2021/08/10 08:24:27;;;;;;;9.57;6.70;;;17.20;98.30;;;;;;5216567;22;20898;-82
2021/08/10 08:26:30;;;;;;;13.80;7.20;;;17.30;98.30;;;;;;5216238;22;20484;-81
2021/08/10 08:28:34;;;;;;;9.37;7.43;;;17.20;98.30;;;;;;5216192;22;20460;-82
2021/08/10 08:30:38;;;;;;;8.83;7.10;;;17.00;98.30;;;;;;5225174;22;20414;-81
2021/08/10 08:32:41;;;;;;;11.80;7.40;;;17.00;98.30;;;;;;5216884;22;20422;-82
2021/08/10 08:34:46;;;;;;;8.80;6.47;;;17.00;98.30;;;;;;5216164;22;20421;-81
2021/08/10 08:36:49;;;;;;;10.67;7.70;;;17.00;98.30;;;;;;5216147;22;20485;-81
2021/08/10 08:38:52;;;;;;;8.30;7.00;;;17.20;98.30;;;;;;5224856;22;20728;-82
2021/08/10 08:40:55;;;;;;;8.43;6.40;;;17.20;98.30;;;;;;5216623;22;20438;-81
2021/08/10 08:42:58;;;;;;;8.33;7.03;;;17.30;98.30;;;;;;5216386;22;20539;-81
2021/08/10 08:45:01;;;;;;;7.70;6.50;;;17.50;98.30;;;;;;5216004;22;20512;-82
2021/08/10 08:47:05;;;;;;;7.83;6.20;;;17.70;98.30;;;;;;5216851;22;20739;-81
2021/08/10 08:49:09;;;;;;;11.33;6.90;;;18.00;98.30;;;;;;5226256;22;20528;-81
2021/08/10 08:51:17;;;;;;;9.40;7.00;;;18.10;98.30;;;;;;5226395;22;20424;-82
2021/08/10 08:53:21;;;;;;;12.10;7.50;;;18.30;98.30;;;;;;5226055;22;20431;-80
2021/08/10 08:55:24;;;;;;;7.30;6.57;;;18.40;98.30;;;;;;5217578;22;20426;-82
2021/08/10 08:57:29;;;;;;;12.97;6.63;;;18.40;98.30;;;;;;5217638;22;20501;-82
2021/08/10 08:59:34;;;;;;;11.13;6.60;;;18.30;98.30;;;;;;5226324;22;20437;-80
2021/08/10 09:01:38;;;;;;;9.13;6.43;;;18.40;98.30;;;;;;5217789;22;20428;-82
2021/08/10 09:03:41;;;;;;;10.70;6.40;;;18.50;98.30;;;;;;5217796;22;20969;-82
2021/08/10 09:05:47;;;;;;;10.40;6.40;;;18.70;98.30;;;;;;5217725;22;20465;-81
2021/08/10 09:07:55;;;;;;;10.23;6.13;;;18.70;98.30;;;;;;5217194;22;20430;-81
2021/08/10 09:10:07;;;;;;;8.97;5.80;;;18.90;98.30;;;;;;5217976;22;20905;-82
2021/08/10 09:12:14;;;;;;;10.67;5.90;;;19.10;98.30;;;;;;5226371;22;20426;-82
2021/08/10 09:14:17;;;;;;;6.80;5.47;;;19.10;98.30;;;;;;5218056;22;20496;-82
2021/08/10 09:16:20;;;;;;;6.83;5.43;;;19.00;98.30;;;;;;5226357;22;20409;-82
2021/08/10 09:18:24;;;;;;;7.10;6.40;;;19.10;98.30;;;;;;5217416;22;20457;-82
2021/08/10 09:20:27;;;;;;;9.43;5.30;;;19.10;98.30;;;;;;5226032;22;20568;-82
2021/08/10 09:22:32;;;;;;;9.80;5.70;;;19.10;98.30;;;;;;5217186;22;20536;-82
2021/08/10 09:24:44;;;;;;;7.50;6.20;;;19.00;98.30;;;;;;5217786;22;20448;-81
2021/08/10 09:26:47;;;;;;;8.83;5.80;;;19.00;98.30;;;;;;5225524;22;20448;-81
2021/08/10 09:28:56;;;;;;;11.93;5.97;;;19.20;98.30;;;;;;5217468;22;20441;-82
2021/08/10 09:31:33;;;;;;;9.73;5.17;;;19.40;98.30;;;;;;5217612;22;20406;-82
2021/08/10 09:33:40;;;;;;;6.30;5.17;;;19.40;98.30;;;;;;5216953;22;20414;-82
2021/08/10 09:35:43;;;;;;;7.53;5.37;;;19.60;98.30;;;;;;5217536;22;20406;-82
2021/08/10 09:38:09;;;;;;;7.63;5.30;;;19.60;98.30;;;;;;5217367;22;20422;-81
2021/08/10 09:40:30;;;;;;;8.83;6.13;;;19.60;98.30;;;;;;5217316;22;20406;-82
2021/08/10 09:42:33;;;;;;;7.40;5.00;;;19.70;98.30;;;;;;5225957;22;20414;-82
2021/08/10 09:44:37;;;;;;;5.93;5.03;;;20.10;98.30;;;;;;5217516;22;20488;-81
2021/08/10 09:46:47;;;;;;;8.00;5.63;;;20.30;98.30;;;;;;5217094;22;20445;-81
2021/08/10 09:48:54;;;;;;;8.23;5.40;;;19.90;98.30;;;;;;5217348;22;20449;-81
2021/08/10 09:51:06;;;;;;;8.50;5.57;;;19.70;98.30;;;;;;5217660;22;20449;-81
2021/08/10 09:53:16;;;;;;;5.77;5.00;;;19.60;98.30;;;;;;5217687;22;20455;-81
2021/08/10 09:55:20;;;;;;;6.00;5.03;;;19.80;98.30;;;;;;5217548;22;20792;-82
2021/08/10 09:57:24;;;;;;;6.03;5.00;;;19.90;98.30;;;;;;5217612;22;20429;-82
2021/08/10 09:59:29;;;;;;;6.00;5.10;;;19.90;98.30;;;;;;5225976;22;20473;-82
2021/08/10 10:01:34;;;;;;;7.60;4.93;;;19.80;98.30;;;;;;5217241;22;20501;-82
2021/08/10 10:03:38;;;;;;;6.40;4.70;;;19.80;98.30;;;;;;5217275;22;20445;-82
2021/08/10 10:05:43;;;;;;;6.70;4.67;;;19.80;98.30;;;;;;5217079;22;20978;-82
2021/08/10 10:08:13;;;;;;;7.30;4.73;;;19.90;98.30;;;;;;5225382;22;20748;-81
2021/08/10 10:10:16;;;;;;;6.77;5.77;;;20.00;98.30;;;;;;5225838;22;20399;-82
2021/08/10 10:12:22;;;;;;;8.17;5.60;;;19.90;98.30;;;;;;5225770;22;20476;-82
2021/08/10 10:14:28;;;;;;;6.17;5.53;;;20.00;98.30;;;;;;5225806;22;20403;-81
2021/08/10 10:16:32;;;;;;;6.60;5.73;;;20.20;98.30;;;;;;5217185;22;20420;-80
2021/08/10 10:18:37;;;;;;;5.67;5.17;;;20.20;98.30;;;;;;5217080;22;20450;-81
2021/08/10 10:20:43;;;;;;;8.73;5.57;;;20.20;98.30;;;;;;5217491;22;20429;-81
2021/08/10 10:22:47;;;;;;;8.53;5.87;;;20.10;98.30;;;;;;5225511;22;20410;-81
2021/08/10 10:24:53;;;;;;;6.27;5.57;;;20.10;98.30;;;;;;5225669;22;20422;-82
2021/08/10 10:27:02;;;;;;;8.37;6.37;;;20.00;98.30;;;;;;5225417;22;20521;-81
2021/08/10 10:29:05;;;;;;;7.80;5.93;;;19.70;98.30;;;;;;5216848;22;20452;-81
2021/08/10 10:31:10;;;;;;;8.07;6.40;;;19.70;98.30;;;;;;5225399;22;20502;-82
2021/08/10 10:33:15;;;;;;;7.00;5.80;;;19.60;98.30;;;;;;5225535;22;20418;-81
2021/08/10 10:35:18;;;;;;;6.70;6.10;;;19.90;98.30;;;;;;5217001;22;20422;-82
2021/08/10 10:37:24;;;;;;;6.83;6.13;;;20.10;98.30;;;;;;5216733;22;20789;-81
2021/08/10 10:39:30;;;;;;;10.23;7.53;;;20.20;98.30;;;;;;5216834;22;20452;-81
2021/08/10 10:41:35;;;;;;;8.07;6.10;;;20.00;98.30;;;;;;5225477;22;20414;-82
2021/08/10 10:43:39;;;;;;;7.57;6.13;;;19.90;98.30;;;;;;5217012;22;20406;-82
2021/08/10 10:45:43;;;;;;;6.93;6.30;;;19.90;98.30;;;;;;5216887;22;20432;-81
2021/08/10 10:47:47;;;;;;;9.87;6.50;;;20.30;98.30;;;;;;5225068;22;20463;-81
2021/08/10 10:50:17;;;;;;;8.37;6.47;;;20.70;98.30;;;;;;5216586;22;21131;-81
2021/08/10 10:52:20;;;;;;;8.03;6.30;;;21.10;98.30;;;;;;5216868;22;20754;-81
2021/08/10 10:54:26;;;;;;;7.17;6.47;;;21.10;98.30;;;;;;5216872;22;20505;-82
2021/08/10 10:56:34;;;;;;;7.73;6.57;;;20.90;98.30;;;;;;5216509;22;20884;-82
2021/08/10 10:58:37;;;;;;;8.57;7.77;;;20.60;98.30;;;;;;5216491;22;20445;-82
2021/08/10 11:00:40;;;;;;;8.97;8.10;;;20.20;98.30;;;;;;5216733;22;20428;-82
2021/08/10 11:02:45;;;;;;;9.17;7.90;;;19.90;98.30;;;;;;5216766;22;20479;-81
2021/08/10 11:05:27;;;;;;;8.60;7.47;;;19.70;98.30;;;;;;5216814;22;20800;-82
2021/08/10 11:07:37;;;;;;;8.20;7.40;;;19.70;98.30;;;;;;5112211;23;20446;-82
2021/08/10 11:09:58;;;;;;;9.00;7.87;;;19.60;98.30;;;;;;5178380;22;20445;-82
2021/08/10 11:12:00;;;;;;;9.53;7.73;;;19.60;98.30;;;;;;5216739;22;20937;-82
2021/08/10 11:14:03;;;;;;;9.20;7.67;;;19.60;98.30;;;;;;5216742;22;20930;-82
2021/08/10 11:16:10;;;;;;;8.70;7.60;;;19.60;98.30;;;;;;5216528;22;20728;-81
2021/08/10 11:18:26;;;;;;;10.67;8.60;;;19.60;98.30;;;;;;5216291;22;20450;-81
2021/08/10 11:20:31;;;;;;;10.37;8.77;;;19.50;98.30;;;;;;5225054;22;20493;-82
2021/08/10 11:22:34;;;;;;;10.00;9.00;;;19.40;98.30;;;;;;5225048;22;20925;-81
2021/08/10 11:24:37;;;;;;;9.20;7.93;;;19.20;98.30;;;;;;5216858;22;20479;-82
2021/08/10 11:26:42;;;;;;;12.10;8.63;;;19.10;98.30;;;;;;5216593;22;20432;-81
2021/08/10 11:28:49;;;;;;;10.23;9.13;;;19.10;98.30;;;;;;5224827;22;20457;-81
2021/08/10 11:30:53;;;;;;;11.00;9.90;;;19.00;98.30;;;;;;5216555;22;20406;-81
2021/08/10 11:33:00;;;;;;;10.33;9.13;;;18.80;98.30;;;;;;5225164;22;20402;-81
2021/08/10 11:35:23;;;;;;;12.50;10.73;;;18.60;98.30;;;;;;5216551;22;20428;-81
2021/08/10 11:37:29;;;;;;;12.87;11.00;;;18.10;98.30;;;;;;5215829;22;20429;-80
2021/08/10 11:39:32;;;;;;;15.03;13.60;;;17.80;98.30;;;;;;5216149;22;20446;-82
2021/08/10 11:41:36;;;;;;;16.33;12.67;;;17.70;98.30;;;;;;5225285;22;20418;-81
2021/08/10 11:43:41;;;;;;;14.40;12.47;;;17.80;98.30;;;;;;5225241;22;20414;-81
2021/08/10 11:45:44;;;;;;;11.90;10.70;;;18.00;98.30;;;;;;5216546;22;20417;-82
2021/08/10 11:48:01;;;;;;;11.60;10.37;;;18.40;98.30;;;;;;5215931;22;20446;-82
2021/08/10 17:50:37;;;;;;;11.90;7.53;;;17.70;98.30;;;;;;5216209;22;20510;-80
2021/08/10 17:52:41;;;;;;;8.53;7.60;;;17.70;98.30;;;;;;5218043;22;20382;-81
2021/08/10 17:54:44;;;;;;;8.57;7.47;;;17.70;98.30;;;;;;5227400;22;20418;-80
2021/08/10 17:56:48;;;;;;;8.93;7.57;;;17.70;98.30;;;;;;5226638;22;20426;-79
2021/08/10 17:58:54;;;;;;;10.50;7.70;;;17.80;98.30;;;;;;5218791;22;20437;-79
2021/08/10 18:00:57;;;;;;;6.77;6.17;;;17.70;98.30;;;;;;5227822;22;20471;-80
2021/08/10 18:03:01;;;;;;;7.83;6.80;;;17.70;98.30;;;;;;5226759;22;20426;-79
2021/08/10 18:05:05;;;;;;;7.37;6.67;;;17.60;98.30;;;;;;5227599;22;20829;-81
2021/08/10 18:07:14;;;;;;;6.90;6.20;;;17.60;98.30;;;;;;5227077;22;20457;-80
2021/08/10 18:09:19;;;;;;;7.00;6.30;;;17.60;98.30;;;;;;5200900;22;20466;-84
2021/08/10 18:11:24;;;;;;;8.17;6.40;;;17.50;98.30;;;;;;5228701;22;20418;-81
2021/08/10 18:13:27;;;;;;;6.63;5.93;;;17.50;98.30;;;;;;5227933;22;20427;-81
2021/08/10 18:15:30;;;;;;;6.40;5.80;;;17.50;98.30;;;;;;5219837;22;20426;-82
2021/08/10 18:17:33;;;;;;;6.87;6.10;;;17.50;98.30;;;;;;5219631;22;20436;-81
2021/08/10 18:19:36;;;;;;;6.93;6.03;;;17.40;98.30;;;;;;5219194;22;20446;-82
2021/08/10 18:21:39;;;;;;;6.60;5.87;;;17.40;98.30;;;;;;5220384;22;20929;-81
2021/08/10 18:23:43;;;;;;;6.10;5.60;;;17.30;98.30;;;;;;5227444;22;20925;-81
2021/08/10 18:25:49;;;;;;;6.03;5.37;;;17.40;98.30;;;;;;5229310;22;20444;-79
2021/08/10 18:27:54;;;;;;;6.53;5.90;;;17.30;98.30;;;;;;5220014;22;20523;-80
2021/08/10 18:29:57;;;;;;;6.87;6.27;;;17.40;98.30;;;;;;5227518;22;21101;-80
2021/08/10 18:32:00;;;;;;;6.97;6.30;;;17.30;98.30;;;;;;5219841;22;20426;-79
2021/08/10 18:34:03;;;;;;;7.77;6.47;;;17.30;98.30;;;;;;5219932;22;20436;-79
2021/08/10 18:36:08;;;;;;;6.87;6.03;;;17.30;98.30;;;;;;5220882;22;20426;-80
2021/08/10 18:38:13;;;;;;;7.80;7.00;;;17.30;98.30;;;;;;5219495;22;20430;-79
2021/08/10 18:40:32;;;;;;;7.23;6.53;;;17.30;98.30;;;;;;5219147;22;20442;-78
2021/08/10 18:42:35;;;;;;;7.97;6.97;;;17.30;98.30;;;;;;5220187;22;20426;-78
2021/08/10 18:44:42;;;;;;;9.70;7.53;;;17.20;98.30;;;;;;5220042;22;21076;-79
2021/08/10 18:46:45;;;;;;;7.50;6.80;;;17.20;98.30;;;;;;5219669;22;20448;-80
2021/08/10 18:48:51;;;;;;;6.70;6.10;;;17.20;98.30;;;;;;5228600;22;20957;-79
2021/08/10 18:50:57;;;;;;;7.60;6.50;;;17.20;98.30;;;;;;5220824;22;20450;-80
2021/08/10 18:53:00;;;;;;;12.33;7.57;;;17.10;98.30;;;;;;5220866;22;20951;-80
2021/08/10 18:55:03;;;;;;;11.30;7.47;;;17.10;98.30;;;;;;5221680;22;20434;-80
2021/08/10 18:57:08;;;;;;;8.63;7.17;;;17.20;98.30;;;;;;5230300;22;20416;-80
2021/08/10 18:59:11;;;;;;;7.00;6.30;;;17.20;98.30;;;;;;5220791;22;20422;-80
2021/08/10 19:01:13;;;;;;;7.63;6.87;;;17.20;98.30;;;;;;5221118;22;20489;-80
2021/08/10 19:03:17;;;;;;;7.20;6.43;;;17.20;98.30;;;;;;5226199;22;20954;-80
2021/08/10 19:05:21;;;;;;;7.40;6.70;;;17.20;98.30;;;;;;5217388;22;20468;-81
2021/08/10 19:07:24;;;;;;;10.00;7.37;;;17.10;98.30;;;;;;5217358;22;20463;-80
2021/08/10 19:09:26;;;;;;;7.37;6.67;;;17.10;98.30;;;;;;5225656;22;21143;-79
2021/08/10 19:11:31;;;;;;;8.10;6.60;;;17.00;98.30;;;;;;5226478;22;20521;-80
2021/08/10 19:13:35;;;;;;;10.60;5.80;;;17.10;98.30;;;;;;5226891;22;20890;-80
2021/08/10 19:15:38;;;;;;;12.47;6.67;;;17.00;98.30;;;;;;5218928;22;20430;-82
2021/08/10 19:17:42;;;;;;;6.80;6.10;;;17.00;98.30;;;;;;5230211;22;20421;-82
2021/08/10 19:19:45;;;;;;;9.37;6.20;;;17.00;98.30;;;;;;5217435;22;20442;-81
2021/08/10 19:21:48;;;;;;;7.90;7.10;;;17.00;98.30;;;;;;5226609;22;20487;-82
2021/08/10 19:23:53;;;;;;;10.40;8.33;;;16.90;98.30;;;;;;5218269;22;20602;-82
2021/08/10 19:26:00;;;;;;;7.63;6.83;;;17.00;98.30;;;;;;5218076;22;20773;-81
2021/08/10 19:28:04;;;;;;;7.70;6.60;;;17.00;98.30;;;;;;5225855;22;20433;-82
2021/08/10 19:30:09;;;;;;;11.50;7.07;;;17.00;98.30;;;;;;5217086;22;20752;-81
2021/08/10 19:32:12;;;;;;;9.87;7.20;;;17.10;98.30;;;;;;5218099;22;20860;-81
2021/08/10 19:34:17;;;;;;;8.57;7.10;;;17.10;98.30;;;;;;5218432;22;20460;-81
2021/08/10 19:36:19;;;;;;;10.20;6.57;;;17.10;98.30;;;;;;5226079;22;20422;-82
2021/08/10 19:38:22;;;;;;;22.27;15.63;;;17.10;98.30;;;;;;5217529;22;20479;-81
2021/08/10 19:40:25;;;;;;;12.40;9.70;;;17.00;98.30;;;;;;5217601;22;20798;-81
2021/08/10 19:42:29;;;;;;;8.57;7.70;;;17.00;98.30;;;;;;5218068;22;20429;-82
2021/08/10 19:44:32;;;;;;;9.40;8.27;;;17.10;98.30;;;;;;5217787;22;20452;-80
2021/08/10 19:46:37;;;;;;;10.17;8.60;;;17.10;98.30;;;;;;5217514;22;20460;-82
2021/08/10 19:48:40;;;;;;;9.33;7.77;;;17.10;98.30;;;;;;5226555;22;20463;-81
2021/08/10 19:50:43;;;;;;;8.47;7.57;;;17.20;98.30;;;;;;5217297;22;20499;-80
2021/08/10 19:52:46;;;;;;;10.03;7.93;;;17.20;98.30;;;;;;5218025;22;20421;-80
2021/08/10 19:54:49;;;;;;;10.00;7.70;;;17.20;98.30;;;;;;5226109;22;20428;-81
2021/08/10 19:56:52;;;;;;;12.23;7.30;;;17.30;98.30;;;;;;5217940;22;21179;-80
2021/08/10 19:58:55;;;;;;;11.73;7.63;;;17.20;98.30;;;;;;5226565;22;20418;-81
2021/08/10 20:00:59;;;;;;;8.37;7.50;;;17.20;98.30;;;;;;5225900;22;20450;-81
2021/08/10 20:03:04;;;;;;;8.93;8.03;;;17.20;98.30;;;;;;5218008;22;20923;-81
2021/08/10 20:05:08;;;;;;;10.60;8.87;;;17.20;98.30;;;;;;5218141;22;20720;-80
2021/08/10 20:07:11;;;;;;;8.90;8.10;;;17.20;98.30;;;;;;5225426;22;20525;-80
2021/08/10 20:09:14;;;;;;;8.57;7.67;;;17.30;98.30;;;;;;5217876;22;20445;-80
2021/08/10 20:11:17;;;;;;;8.70;7.90;;;17.20;98.30;;;;;;5226621;22;20442;-80
2021/08/10 20:13:22;;;;;;;9.90;8.07;;;17.20;98.30;;;;;;5217666;22;20743;-80
2021/08/10 20:15:25;;;;;;;9.97;8.70;;;17.10;98.30;;;;;;5217831;22;20421;-81
2021/08/10 20:17:28;;;;;;;12.40;7.37;;;17.10;98.30;;;;;;5217171;22;20426;-80
2021/08/10 20:19:32;;;;;;;8.97;8.10;;;17.10;98.30;;;;;;5226447;22;20512;-81
2021/08/10 20:21:35;;;;;;;10.33;8.67;;;17.00;98.30;;;;;;5226586;22;20428;-80
2021/08/10 20:23:38;;;;;;;9.17;8.23;;;17.00;98.30;;;;;;5217792;22;20436;-80
2021/08/10 20:25:41;;;;;;;11.17;10.07;;;16.90;98.30;;;;;;5226683;22;20414;-81
2021/08/10 20:27:44;;;;;;;9.97;8.87;;;16.90;98.30;;;;;;5217799;22;20457;-81
2021/08/10 20:29:47;;;;;;;10.13;8.60;;;16.90;98.30;;;;;;5226197;22;21091;-81
2021/08/10 20:31:50;;;;;;;10.20;8.73;;;16.90;98.30;;;;;;5218156;22;20483;-81
2021/08/10 20:33:54;;;;;;;11.50;9.03;;;16.90;98.30;;;;;;5218179;22;20436;-80
2021/08/10 20:35:59;;;;;;;10.77;9.67;;;16.80;98.30;;;;;;5226175;22;20886;-80
2021/08/10 20:38:04;;;;;;;9.53;8.53;;;16.80;98.30;;;;;;5217928;22;20437;-81
2021/08/10 20:40:08;;;;;;;9.77;8.50;;;16.80;98.30;;;;;;5217240;22;20438;-81
2021/08/10 20:42:11;;;;;;;11.73;9.13;;;16.70;98.30;;;;;;5218518;22;20444;-80
2021/08/10 20:44:14;;;;;;;10.23;8.93;;;16.60;98.30;;;;;;5220015;22;20491;-80
2021/08/10 20:46:17;;;;;;;10.10;8.93;;;16.60;98.30;;;;;;5219422;22;20432;-80
2021/08/10 20:48:20;;;;;;;11.33;8.60;;;16.60;98.30;;;;;;5227925;22;20463;-80
2021/08/10 20:50:23;;;;;;;10.77;8.60;;;16.60;98.30;;;;;;5218984;22;20556;-80
2021/08/10 20:52:27;;;;;;;11.97;9.50;;;16.50;98.30;;;;;;5228103;22;20471;-80
2021/08/10 20:54:30;;;;;;;10.37;9.10;;;16.50;98.30;;;;;;5219658;22;20432;-80
2021/08/10 20:56:33;;;;;;;11.73;9.50;;;16.50;98.30;;;;;;5228019;22;20418;-81
2021/08/10 20:58:36;;;;;;;14.70;9.03;;;16.50;98.30;;;;;;5219663;22;20808;-81
2021/08/10 21:00:39;;;;;;;16.93;9.47;;;16.40;98.30;;;;;;5219139;22;20473;-81
2021/08/10 21:02:42;;;;;;;12.53;9.63;;;16.40;98.30;;;;;;5218567;22;20476;-80
2021/08/10 21:04:45;;;;;;;13.97;11.00;;;16.40;98.30;;;;;;5219041;22;20421;-80
2021/08/10 21:06:48;;;;;;;11.37;9.97;;;16.30;98.30;;;;;;5218902;22;20430;-80
2021/08/10 21:08:52;;;;;;;14.10;10.60;;;16.30;98.30;;;;;;5219608;22;20426;-80
2021/08/10 21:10:58;;;;;;;11.03;9.80;;;16.30;98.30;;;;;;5218830;22;20445;-80
2021/08/10 21:13:01;;;;;;;13.00;10.40;;;16.30;98.30;;;;;;5226652;22;20728;-80
2021/08/10 21:15:04;;;;;;;13.10;10.90;;;16.30;98.30;;;;;;5218931;22;20426;-80
2021/08/10 21:17:07;;;;;;;13.70;11.00;;;16.30;98.30;;;;;;5218492;22;20535;-80
2021/08/10 21:19:10;;;;;;;12.93;11.40;;;16.20;98.30;;;;;;5218730;22;20425;-79
2021/08/10 21:21:15;;;;;;;13.37;11.47;;;16.20;98.30;;;;;;5218132;22;20426;-80
2021/08/10 21:23:17;;;;;;;14.77;10.90;;;16.20;98.30;;;;;;5227064;22;20898;-81
2021/08/10 21:25:22;;;;;;;13.83;11.37;;;16.20;98.30;;;;;;5218597;22;20475;-80
2021/08/10 21:27:24;;;;;;;15.27;10.47;;;16.20;98.30;;;;;;5218106;22;20434;-81
2021/08/10 21:29:27;;;;;;;12.40;11.10;;;16.20;98.30;;;;;;5218201;22;20448;-82
2021/08/10 21:31:31;;;;;;;14.70;11.03;;;16.20;98.30;;;;;;5217940;22;20446;-81
2021/08/10 21:33:34;;;;;;;12.90;10.70;;;16.20;98.30;;;;;;5226922;22;20425;-81
2021/08/10 21:35:36;;;;;;;12.63;11.10;;;16.30;98.30;;;;;;5227127;22;20418;-80
2021/08/10 21:37:39;;;;;;;20.13;11.73;;;16.30;98.30;;;;;;5226749;22;20422;-80
2021/08/10 21:39:42;;;;;;;14.70;10.60;;;16.30;98.30;;;;;;5217716;22;20949;-81
2021/08/10 21:41:46;;;;;;;15.07;11.80;;;16.30;98.30;;;;;;5217438;22;20428;-81
2021/08/10 21:43:49;;;;;;;13.90;10.97;;;16.20;98.30;;;;;;5217897;22;20487;-80
2021/08/10 21:45:52;;;;;;;15.77;10.80;;;16.20;98.30;;;;;;5224730;22;20421;-81
2021/08/10 21:47:55;;;;;;;13.40;11.13;;;16.20;98.30;;;;;;5225122;22;20432;-81
2021/08/10 21:49:57;;;;;;;15.77;11.63;;;16.20;98.30;;;;;;5217137;22;20450;-81
2021/08/10 21:52:00;;;;;;;12.67;10.40;;;16.20;98.30;;;;;;5217490;22;20432;-80
2021/08/10 21:54:03;;;;;;;14.83;10.83;;;16.20;98.30;;;;;;5225734;22;20497;-80
2021/08/10 21:56:07;;;;;;;13.30;11.27;;;16.20;98.30;;;;;;5216293;22;20432;-80
2021/08/10 21:58:12;;;;;;;16.87;11.57;;;16.20;98.30;;;;;;5217351;22;20432;-80
2021/08/10 22:00:15;;;;;;;13.53;12.20;;;16.20;98.30;;;;;;5217812;22;20449;-80
2021/08/10 22:02:18;;;;;;;13.13;10.27;;;16.20;98.30;;;;;;5217188;22;20429;-80
2021/08/10 22:04:21;;;;;;;17.23;12.00;;;16.10;98.30;;;;;;5217502;22;21133;-80
2021/08/10 22:06:24;;;;;;;13.63;11.10;;;16.10;98.30;;;;;;5225942;22;20459;-80
2021/08/10 22:08:27;;;;;;;12.50;10.90;;;16.10;98.30;;;;;;5225742;22;20410;-80
2021/08/10 22:10:30;;;;;;;13.43;11.40;;;16.00;98.30;;;;;;5217234;22;20445;-80
2021/08/10 22:12:33;;;;;;;13.70;11.53;;;16.00;98.30;;;;;;5217599;22;20422;-80
2021/08/10 22:14:37;;;;;;;17.97;12.63;;;16.00;98.30;;;;;;5217628;22;20430;-80
2021/08/10 22:16:40;;;;;;;17.30;12.83;;;16.00;98.30;;;;;;5217791;22;20422;-80
2021/08/10 22:18:44;;;;;;;14.90;11.50;;;15.90;98.30;;;;;;5221872;22;20456;-80
2021/08/10 22:20:47;;;;;;;14.77;12.30;;;15.90;98.30;;;;;;5229940;22;20437;-80
2021/08/10 22:22:49;;;;;;;18.67;12.47;;;15.90;98.30;;;;;;5229386;22;20425;-80
2021/08/10 22:24:53;;;;;;;22.10;16.57;;;15.90;98.30;;;;;;5221169;22;20426;-80
2021/08/10 22:26:56;;;;;;;17.53;12.70;;;15.80;98.30;;;;;;5230023;22;20457;-78
2021/08/10 22:28:59;;;;;;;17.33;13.40;;;15.80;98.30;;;;;;5226000;22;20797;-81
2021/08/10 22:31:03;;;;;;;15.30;11.97;;;15.80;98.30;;;;;;5217126;22;20445;-78
2021/08/10 22:33:06;;;;;;;16.20;12.60;;;15.80;98.30;;;;;;5216695;22;20430;-79
2021/08/10 22:35:09;;;;;;;15.53;12.57;;;15.80;98.30;;;;;;5216408;22;20499;-80